LGA weather

La Guardia Airport
New York, New York, United States

Public forecast

Using degrees Fahrenheit for public forecast. Weather courtesy of forecast.io.

METAR (pilot weather report)

Retrieved 2017/08/18 01:51 UTC (31 minutes ago):

KLGA 180151Z 14005KT 10SM FEW015 SCT100 BKN250 24/22 A2997 RMK AO2 SLP149 T02390217

TAF (pilot weather forecast)

Forecast is more than 12 hours old.

Retrieved 2017/08/17 00:40 UTC (1 day ago):

TAF KLGA 172338Z 1800/1824 16008KT P6SM BKN250 FM180700 17007KT P6SM VCSH OVC050 FM181000 18007KT 5SM -SHRA VCTS OVC030CB FM181200 18010G18KT 3SM SHRA VCTS OVC015CB TEMPO 1812/1815 1SM +SHRA OVC009 FM181600 18012G20KT P6SM SCT020 BKN040 FM182200 19012G20KT 6SM -SHRA VCTS OVC035CB PROB30 1822/1824 2SM TSRA OVC025CB